Nortonville, North Dakota
Current Conditions -  °F | °C
As of 9:56 PM on Monday 20 Oct 2014 (Local Time) from KJMS Reporting Station
Clear Clear  
Wind Chill: 51°   Ceiling: Unl
Heat Index: 51°   Visibility: 10mi
Dew Point: 40°   Wind: 10mph
Humidity: 66%   Direction: 150°SSE
Pressure: 30"   Gusts: NA
Location:  46.4882°N, 98.8135°W
Report Text: KJMS 210256Z AUTO 15009KT 10SM CLR 11/04 A3000 RMK AO2 SLP167 T01060044 53004
Loading
Personal Weather Stations






























Interactive Weather Map
Tropical Storm Tracking
New forecast layout! Learn more

10-Day Weather Forecast

Advertisements
Track Severe Weather on mobile